Time;durP1;ratioP1;P1;durP2;ratioP2;P2;SDS_P1;SDS_P2;PMS_P1;PMS_P2;Temp;Humidity;BMP_temperature;BMP_pressure;BME280_temperature;BME280_humidity;BME280_pressure;Samples;Min_cycle;Max_cycle;Signal;HPM_P1;HPM_P2
2023/06/21 00:02:17;;;;;;;6.93;6.33;;;20.40;18.50;;;;;;5118472;28;20467;-56
2023/06/21 00:04:46;;;;;;;6.90;6.20;;;20.40;47.00;;;;;;5118854;28;20467;-55
2023/06/21 00:07:13;;;;;;;5.23;4.83;;;20.30;47.60;;;;;;5118979;28;20470;-52
2023/06/21 00:09:40;;;;;;;6.20;5.60;;;20.40;57.00;;;;;;5119018;28;20869;-56
2023/06/21 00:12:08;;;;;;;6.57;5.97;;;20.30;89.40;;;;;;5118857;28;20464;-56
2023/06/21 00:14:35;;;;;;;6.90;6.10;;;20.30;99.90;;;;;;5118568;28;20554;-57
2023/06/21 00:17:03;;;;;;;5.87;5.30;;;20.30;99.90;;;;;;5118449;27;20512;-52
2023/06/21 00:19:30;;;;;;;6.50;5.90;;;20.30;99.90;;;;;;5118528;28;20487;-56
2023/06/21 00:22:02;;;;;;;6.73;6.13;;;20.20;99.90;;;;;;5118622;28;20460;-54
2023/06/21 00:24:29;;;;;;;5.93;5.43;;;20.20;99.90;;;;;;5118644;28;20898;-55
2023/06/21 00:26:56;;;;;;;5.70;5.20;;;20.30;99.90;;;;;;5118420;28;20491;-54
2023/06/21 00:29:23;;;;;;;5.20;4.70;;;20.20;99.90;;;;;;5118920;28;20562;-55
2023/06/21 00:31:51;;;;;;;5.13;4.63;;;20.10;36.50;;;;;;5118314;28;20542;-57
2023/06/21 00:34:18;;;;;;;4.93;4.53;;;20.10;5.90;;;;;;5118082;28;20467;-55
2023/06/21 00:36:45;;;;;;;5.07;4.57;;;20.00;1.00;;;;;;5118255;28;20495;-54
2023/06/21 00:39:17;;;;;;;5.43;4.30;;;20.00;1.00;;;;;;5118488;28;20493;-55
2023/06/21 00:41:44;;;;;;;4.57;4.17;;;19.90;1.00;;;;;;5118212;28;20451;-54
2023/06/21 00:44:11;;;;;;;4.60;4.20;;;19.90;99.90;;;;;;5118220;28;20467;-56
2023/06/21 00:46:39;;;;;;;5.63;5.03;;;19.80;99.90;;;;;;5118072;28;20464;-56
2023/06/21 00:49:06;;;;;;;6.07;5.47;;;19.80;99.90;;;;;;5117943;28;20467;-56
2023/06/21 00:51:36;;;;;;;5.63;4.50;;;19.80;1.00;;;;;;5117674;28;20491;-59
2023/06/21 00:54:03;;;;;;;5.10;4.60;;;19.80;1.00;;;;;;5117706;28;20503;-56
2023/06/21 00:56:33;;;;;;;5.57;5.07;;;19.70;99.90;;;;;;5117799;28;20463;-52
2023/06/21 00:59:04;;;;;;;5.30;4.80;;;19.60;99.90;;;;;;5118046;28;20490;-50
2023/06/21 01:01:34;;;;;;;5.60;5.10;;;19.60;1.00;;;;;;5118337;28;20463;-52
2023/06/21 01:04:01;;;;;;;5.70;5.20;;;19.50;1.00;;;;;;5117338;28;20491;-55
2023/06/21 01:06:34;;;;;;;5.67;5.07;;;19.40;1.00;;;;;;5118152;28;20956;-53
2023/06/21 01:09:14;;;;;;;5.30;4.90;;;19.40;1.00;;;;;;5118010;28;20455;-58
2023/06/21 01:11:52;;;;;;;5.17;4.67;;;19.40;1.00;;;;;;5118191;28;20476;-57
2023/06/21 01:14:31;;;;;;;5.10;4.60;;;19.30;1.00;;;;;;5117788;28;20471;-57
2023/06/21 01:17:00;;;;;;;5.37;4.87;;;19.30;1.00;;;;;;5117698;28;20549;-57
2023/06/21 01:19:41;;;;;;;5.47;4.80;;;19.40;1.00;;;;;;5118238;28;20484;-57
2023/06/21 01:22:18;;;;;;;4.80;4.30;;;19.40;1.00;;;;;;5117396;28;20467;-56
2023/06/21 01:24:56;;;;;;;5.47;4.97;;;19.30;1.00;;;;;;5117745;28;20554;-60
2023/06/21 01:27:42;;;;;;;5.40;4.90;;;19.30;1.00;;;;;;5118254;28;20463;-58
2023/06/21 01:30:14;;;;;;;5.20;4.70;;;19.30;1.00;;;;;;5117460;28;20458;-53
2023/06/21 01:32:43;;;;;;;6.00;5.40;;;19.20;1.00;;;;;;5122074;28;20561;-55
2023/06/21 01:35:11;;;;;;;5.97;5.37;;;19.30;1.00;;;;;;5124640;28;20570;-51
2023/06/21 01:37:42;;;;;;;5.93;5.33;;;19.30;1.00;;;;;;5123910;28;20955;-63
2023/06/21 01:40:11;;;;;;;5.70;5.20;;;19.30;1.00;;;;;;5124106;28;20492;-67
2023/06/21 01:42:39;;;;;;;5.27;4.77;;;19.30;1.00;;;;;;5124403;27;20554;-56
2023/06/21 01:45:07;;;;;;;5.17;4.43;;;19.20;1.00;;;;;;5124637;27;20554;-59
2023/06/21 01:47:37;;;;;;;5.20;4.70;;;19.20;1.00;;;;;;5124509;27;20465;-54
2023/06/21 01:50:07;;;;;;;5.70;5.10;;;19.20;1.00;;;;;;5124493;28;20873;-54
2023/06/21 01:52:35;;;;;;;6.70;5.17;;;19.20;1.00;;;;;;5123820;28;20459;-54
2023/06/21 01:55:03;;;;;;;5.30;4.80;;;19.20;1.00;;;;;;5124061;27;20459;-55
2023/06/21 01:57:35;;;;;;;5.30;4.77;;;19.20;1.00;;;;;;5124160;28;20466;-54
2023/06/21 02:00:13;;;;;;;6.13;5.00;;;19.20;1.00;;;;;;5124210;27;20582;-56
2023/06/21 02:02:47;;;;;;;5.73;5.23;;;19.10;1.00;;;;;;5124185;27;20487;-52
2023/06/21 02:05:16;;;;;;;6.03;5.30;;;19.10;1.00;;;;;;5124070;28;20473;-55
2023/06/21 02:07:45;;;;;;;6.57;5.77;;;19.10;1.00;;;;;;5124493;28;20986;-56
2023/06/21 02:10:13;;;;;;;6.40;5.83;;;19.00;21.90;;;;;;5123721;28;20455;-53
2023/06/21 02:12:41;;;;;;;6.97;6.00;;;18.90;1.00;;;;;;5124108;28;20463;-54
2023/06/21 02:15:09;;;;;;;5.80;5.30;;;18.90;22.10;;;;;;5124195;28;20465;-56
2023/06/21 02:17:36;;;;;;;7.03;6.33;;;18.90;12.90;;;;;;5124265;27;20470;-56
2023/06/21 02:20:13;;;;;;;6.23;5.63;;;18.90;99.90;;;;;;5123679;28;20490;-55
2023/06/21 02:22:40;;;;;;;5.63;5.00;;;18.90;99.90;;;;;;5124264;27;20740;-56
2023/06/21 02:25:08;;;;;;;7.50;5.50;;;18.90;1.00;;;;;;5124282;27;20459;-53
2023/06/21 02:27:35;;;;;;;6.17;5.57;;;18.90;52.40;;;;;;5123986;28;20555;-53
2023/06/21 02:30:03;;;;;;;6.50;5.90;;;19.00;99.90;;;;;;5123759;27;20459;-56
2023/06/21 02:32:30;;;;;;;6.33;5.73;;;19.00;99.90;;;;;;5124084;28;20737;-56
2023/06/21 02:34:59;;;;;;;6.37;5.77;;;18.90;1.00;;;;;;5123836;27;20480;-55
2023/06/21 02:37:29;;;;;;;6.77;6.17;;;18.90;1.00;;;;;;5123520;28;20455;-56
2023/06/21 02:39:56;;;;;;;7.20;6.50;;;18.80;99.90;;;;;;5123215;27;20544;-54
2023/06/21 02:42:23;;;;;;;6.53;5.93;;;18.80;99.90;;;;;;5123531;27;20466;-54
2023/06/21 02:44:50;;;;;;;7.73;6.20;;;18.80;99.90;;;;;;5120695;27;20459;-55
2023/06/21 02:47:18;;;;;;;6.83;6.23;;;18.80;1.00;;;;;;5120904;28;20464;-54
2023/06/21 02:49:45;;;;;;;6.50;5.90;;;18.80;86.30;;;;;;5120655;27;20455;-52
2023/06/21 02:52:14;;;;;;;7.37;6.60;;;18.70;99.90;;;;;;5120319;28;20565;-57
2023/06/21 02:54:42;;;;;;;7.13;6.50;;;18.70;1.00;;;;;;5120238;28;20463;-54
2023/06/21 02:57:10;;;;;;;6.90;6.30;;;18.60;1.00;;;;;;5120350;28;20459;-56
2023/06/21 02:59:37;;;;;;;6.90;6.20;;;18.60;99.90;;;;;;5120590;28;20527;-56
2023/06/21 03:02:05;;;;;;;7.03;6.33;;;18.60;38.30;;;;;;5119637;28;20460;-56
2023/06/21 03:04:33;;;;;;;6.97;6.27;;;18.50;99.90;;;;;;5119044;28;20829;-55
2023/06/21 03:07:01;;;;;;;6.87;6.27;;;18.50;99.90;;;;;;5119573;28;20509;-53
2023/06/21 03:09:28;;;;;;;8.60;7.80;;;18.50;99.90;;;;;;5116909;28;20467;-54
2023/06/21 03:11:57;;;;;;;7.70;6.90;;;18.40;99.90;;;;;;5120255;28;20483;-55
2023/06/21 03:14:24;;;;;;;7.30;6.60;;;18.30;99.90;;;;;;5120120;28;20459;-56
2023/06/21 03:16:51;;;;;;;7.83;7.10;;;18.30;99.90;;;;;;5120056;28;20451;-53
2023/06/21 03:19:18;;;;;;;9.20;7.10;;;18.30;1.00;;;;;;5120307;28;20944;-55
2023/06/21 03:21:46;;;;;;;7.13;6.53;;;18.40;99.90;;;;;;5119993;28;20877;-56
2023/06/21 03:24:13;;;;;;;6.80;6.20;;;18.40;99.90;;;;;;5119863;28;20863;-53
2023/06/21 03:26:41;;;;;;;8.70;6.50;;;18.50;99.90;;;;;;5119816;28;20459;-56
2023/06/21 03:29:09;;;;;;;9.03;6.70;;;18.50;99.90;;;;;;5119764;28;20752;-55
2023/06/21 03:31:37;;;;;;;11.27;7.37;;;18.40;99.90;;;;;;5119700;28;20462;-55
2023/06/21 03:34:04;;;;;;;8.00;7.23;;;18.40;99.90;;;;;;5118886;28;20508;-55
2023/06/21 03:36:31;;;;;;;8.20;7.27;;;18.40;99.90;;;;;;5118259;28;20542;-55
2023/06/21 03:38:58;;;;;;;7.17;6.57;;;18.30;99.90;;;;;;5117976;28;20835;-56
2023/06/21 03:41:25;;;;;;;8.40;7.50;;;18.30;99.90;;;;;;5117378;28;20499;-54
2023/06/21 03:43:53;;;;;;;8.10;6.60;;;18.30;99.90;;;;;;5117947;28;20576;-55
2023/06/21 03:46:21;;;;;;;8.47;7.70;;;18.30;99.90;;;;;;5117444;28;20463;-53
2023/06/21 03:48:51;;;;;;;8.40;7.50;;;18.30;99.90;;;;;;5117662;28;20459;-54
2023/06/21 03:51:18;;;;;;;8.53;7.67;;;18.20;99.90;;;;;;5119751;28;20486;-55
2023/06/21 03:53:45;;;;;;;9.40;7.37;;;18.30;99.90;;;;;;5119158;28;20496;-51
2023/06/21 03:56:12;;;;;;;8.97;8.07;;;18.20;99.90;;;;;;5118862;28;20977;-55
2023/06/21 03:58:41;;;;;;;10.03;8.27;;;18.30;1.00;;;;;;5119087;28;20460;-53
2023/06/21 04:01:09;;;;;;;8.73;7.93;;;18.30;99.90;;;;;;5119420;28;20537;-53
2023/06/21 04:03:37;;;;;;;9.63;8.73;;;18.40;6.50;;;;;;5117001;28;20487;-55
2023/06/21 04:06:04;;;;;;;8.80;7.90;;;18.40;1.00;;;;;;5118179;28;20913;-55
2023/06/21 04:08:31;;;;;;;8.53;7.63;;;18.50;1.00;;;;;;5118763;28;20463;-55
2023/06/21 04:10:59;;;;;;;8.60;7.40;;;18.50;1.00;;;;;;5118423;28;20483;-56
2023/06/21 04:13:26;;;;;;;8.10;6.90;;;18.50;1.00;;;;;;5119316;28;20551;-55
2023/06/21 04:15:53;;;;;;;8.80;7.90;;;18.60;1.00;;;;;;5118113;28;20464;-53
2023/06/21 04:18:20;;;;;;;9.03;7.97;;;18.60;99.90;;;;;;5117930;28;20463;-54
2023/06/21 04:20:49;;;;;;;8.90;8.00;;;18.70;99.90;;;;;;5118498;28;20502;-50
2023/06/21 04:23:17;;;;;;;9.27;7.70;;;18.70;99.90;;;;;;5117496;28;20501;-55
2023/06/21 04:25:44;;;;;;;9.37;8.23;;;18.90;99.90;;;;;;5111788;28;20524;-53
2023/06/21 04:28:11;;;;;;;9.17;8.23;;;18.90;22.90;;;;;;5117443;28;20870;-52
2023/06/21 04:30:38;;;;;;;8.93;6.93;;;19.00;1.00;;;;;;5118820;28;20543;-55
2023/06/21 04:33:05;;;;;;;9.10;8.37;;;18.90;1.00;;;;;;5118555;28;20463;-52
2023/06/21 04:35:33;;;;;;;7.93;7.13;;;18.90;1.00;;;;;;5118132;28;20462;-56
2023/06/21 04:38:02;;;;;;;8.57;7.77;;;18.90;1.00;;;;;;5116637;28;20903;-53
2023/06/21 04:40:30;;;;;;;7.43;6.67;;;19.00;1.00;;;;;;5116344;28;20593;-57
2023/06/21 04:42:58;;;;;;;8.83;8.03;;;18.90;1.00;;;;;;5113104;28;20814;-55
2023/06/21 04:45:26;;;;;;;6.80;6.20;;;19.00;1.00;;;;;;5099537;28;20460;-55
2023/06/21 04:47:57;;;;;;;9.97;7.47;;;19.00;1.00;;;;;;5116240;28;20551;-52
2023/06/21 04:50:25;;;;;;;8.47;7.60;;;19.10;1.00;;;;;;5117677;28;20839;-55
2023/06/21 04:52:57;;;;;;;7.50;6.80;;;19.20;1.00;;;;;;5117735;28;20477;-51
2023/06/21 04:55:26;;;;;;;8.40;7.60;;;19.30;1.00;;;;;;5117147;28;20481;-55
2023/06/21 04:57:55;;;;;;;9.73;8.13;;;19.50;1.00;;;;;;5115684;28;20459;-56
2023/06/21 05:00:22;;;;;;;8.23;7.53;;;19.60;99.90;;;;;;5116097;28;20522;-54
2023/06/21 05:02:49;;;;;;;7.80;7.00;;;19.60;99.90;;;;;;5115507;28;20483;-53
2023/06/21 05:05:17;;;;;;;8.03;7.20;;;19.70;99.90;;;;;;5116266;28;20577;-53
2023/06/21 05:07:44;;;;;;;7.20;6.50;;;19.80;99.90;;;;;;5112724;28;20526;-52
2023/06/21 05:10:12;;;;;;;7.00;6.37;;;20.00;99.90;;;;;;5115317;28;20499;-55
2023/06/21 05:12:40;;;;;;;8.47;7.40;;;20.10;99.90;;;;;;5114494;28;20554;-56
2023/06/21 05:15:08;;;;;;;8.43;7.73;;;20.30;97.00;;;;;;5116013;28;20808;-56
2023/06/21 05:17:36;;;;;;;8.10;7.30;;;20.40;27.50;;;;;;5116143;28;20460;-53
2023/06/21 05:20:04;;;;;;;9.20;7.57;;;20.40;1.00;;;;;;5115909;28;20459;-57
2023/06/21 05:22:31;;;;;;;7.90;7.20;;;20.50;1.00;;;;;;5116928;28;20456;-53
2023/06/21 05:25:00;;;;;;;8.10;7.30;;;20.70;1.00;;;;;;5116648;28;20455;-55
2023/06/21 05:27:27;;;;;;;7.70;6.67;;;20.80;1.00;;;;;;5116884;28;20890;-55
2023/06/21 05:29:56;;;;;;;8.40;7.60;;;21.00;1.00;;;;;;5116422;28;20463;-53
2023/06/21 05:32:25;;;;;;;8.30;7.17;;;21.10;1.00;;;;;;5116476;28;20462;-59
2023/06/21 05:34:53;;;;;;;8.47;7.63;;;21.20;1.00;;;;;;5115849;28;20807;-59
2023/06/21 05:37:20;;;;;;;8.53;7.57;;;21.30;1.00;;;;;;5115887;28;20798;-59
2023/06/21 05:39:47;;;;;;;8.80;8.00;;;21.50;1.00;;;;;;5116106;28;20456;-58
2023/06/21 05:42:14;;;;;;;8.33;7.60;;;21.60;1.00;;;;;;5115701;28;20574;-58
2023/06/21 05:44:41;;;;;;;8.00;7.30;;;21.70;1.00;;;;;;5115766;28;20464;-59
2023/06/21 05:47:10;;;;;;;7.70;6.90;;;21.70;1.00;;;;;;5116691;28;20489;-59
2023/06/21 05:49:37;;;;;;;8.37;7.00;;;21.80;1.00;;;;;;5117756;28;20459;-58
2023/06/21 05:52:05;;;;;;;9.27;8.40;;;21.90;1.00;;;;;;5117151;28;20841;-59
2023/06/21 05:54:32;;;;;;;8.47;7.70;;;22.10;1.00;;;;;;5117427;28;20456;-58
2023/06/21 05:56:59;;;;;;;10.13;9.23;;;22.20;1.00;;;;;;5117161;28;20463;-58
2023/06/21 05:59:26;;;;;;;9.37;8.03;;;22.20;1.00;;;;;;5117079;28;20938;-58
2023/06/21 06:01:53;;;;;;;10.13;8.63;;;22.20;1.00;;;;;;5117376;28;20856;-59
2023/06/21 06:04:22;;;;;;;8.90;8.10;;;22.10;1.00;;;;;;5116885;28;20494;-58
2023/06/21 06:06:49;;;;;;;10.00;8.43;;;22.10;1.00;;;;;;5117235;28;20459;-59
2023/06/21 06:09:16;;;;;;;8.73;7.93;;;22.10;1.00;;;;;;5117468;28;20520;-58
2023/06/21 06:11:44;;;;;;;9.03;8.23;;;22.30;1.00;;;;;;5117252;28;20479;-58
2023/06/21 06:14:11;;;;;;;9.90;9.10;;;22.50;99.90;;;;;;5116987;28;20833;-59
2023/06/21 06:16:39;;;;;;;9.53;8.63;;;22.40;99.90;;;;;;5116981;28;20483;-58
2023/06/21 06:19:07;;;;;;;10.33;9.40;;;22.40;99.90;;;;;;5119990;28;20459;-58
2023/06/21 06:21:36;;;;;;;10.23;9.33;;;22.40;99.90;;;;;;5121169;28;20570;-58
2023/06/21 06:24:04;;;;;;;12.70;8.93;;;22.50;1.00;;;;;;5120483;28;20459;-58
2023/06/21 06:26:31;;;;;;;10.77;9.63;;;22.60;99.90;;;;;;5120821;28;20459;-59
2023/06/21 06:28:59;;;;;;;11.07;9.97;;;22.60;99.90;;;;;;5120421;28;20464;-59
2023/06/21 06:31:30;;;;;;;11.07;9.87;;;22.50;99.90;;;;;;5120828;28;20459;-59
2023/06/21 06:33:58;;;;;;;10.70;9.67;;;22.40;99.90;;;;;;5120043;28;20955;-58
2023/06/21 06:36:25;;;;;;;10.10;9.20;;;22.40;99.90;;;;;;5120248;28;20998;-58
2023/06/21 06:38:54;;;;;;;12.03;10.33;;;22.40;99.90;;;;;;5120473;28;20466;-58
2023/06/21 06:41:21;;;;;;;11.20;10.10;;;22.50;99.90;;;;;;5117732;28;20821;-58
2023/06/21 06:43:48;;;;;;;11.30;10.17;;;22.50;99.90;;;;;;5118668;28;20478;-58
2023/06/21 06:46:15;;;;;;;12.37;10.90;;;22.60;99.90;;;;;;5120543;28;20455;-59
2023/06/21 06:48:42;;;;;;;11.07;10.07;;;22.70;99.90;;;;;;5120237;28;20518;-58
2023/06/21 06:51:10;;;;;;;11.87;10.77;;;22.80;99.90;;;;;;5120333;28;20576;-58
2023/06/21 06:53:37;;;;;;;11.17;10.17;;;22.70;99.90;;;;;;5120234;28;20933;-58
2023/06/21 06:56:06;;;;;;;11.33;10.30;;;22.80;99.90;;;;;;5117352;28;20475;-60
2023/06/21 06:58:35;;;;;;;11.63;10.63;;;23.00;99.90;;;;;;5118947;28;20468;-58
2023/06/21 07:01:05;;;;;;;12.57;11.47;;;23.00;99.90;;;;;;5118845;28;20488;-59
2023/06/21 07:03:32;;;;;;;11.80;10.63;;;23.10;99.90;;;;;;5119161;27;20502;-58
2023/06/21 07:05:59;;;;;;;12.47;10.97;;;23.10;99.90;;;;;;5118898;28;20466;-58
2023/06/21 07:08:27;;;;;;;12.30;11.07;;;23.10;99.90;;;;;;5118747;28;20542;-59
2023/06/21 07:10:55;;;;;;;11.30;10.30;;;23.30;99.90;;;;;;5119807;28;20769;-58
2023/06/21 07:13:23;;;;;;;10.40;9.50;;;23.80;99.90;;;;;;5119899;28;20491;-59
2023/06/21 07:15:51;;;;;;;9.30;8.50;;;24.00;99.90;;;;;;5117727;28;20819;-59
2023/06/21 07:18:18;;;;;;;10.73;9.63;;;23.70;99.90;;;;;;5119922;28;20558;-58
2023/06/21 07:20:45;;;;;;;9.97;9.10;;;23.60;99.90;;;;;;5119526;28;20483;-58
2023/06/21 07:23:12;;;;;;;10.13;9.30;;;23.50;99.90;;;;;;5119732;27;20459;-59
2023/06/21 07:25:40;;;;;;;11.63;10.53;;;23.60;99.90;;;;;;5119237;28;20860;-58
2023/06/21 07:28:07;;;;;;;11.83;10.83;;;23.60;99.90;;;;;;5119525;28;20562;-58
2023/06/21 07:30:37;;;;;;;13.50;12.30;;;23.50;99.90;;;;;;5117330;28;20466;-59
2023/06/21 07:33:04;;;;;;;12.17;11.00;;;23.50;99.90;;;;;;5113734;28;20468;-58
2023/06/21 07:35:31;;;;;;;12.47;11.27;;;23.40;99.90;;;;;;5102538;28;20462;-59
2023/06/21 07:37:58;;;;;;;13.33;12.23;;;23.40;99.90;;;;;;5115888;28;20555;-58
2023/06/21 07:40:26;;;;;;;14.53;13.23;;;23.40;99.90;;;;;;5115306;28;20452;-58
2023/06/21 07:42:53;;;;;;;13.20;12.00;;;23.00;99.90;;;;;;5114696;28;20491;-58
2023/06/21 07:45:20;;;;;;;12.97;11.67;;;23.00;99.90;;;;;;5115164;28;20455;-59
2023/06/21 07:47:49;;;;;;;14.10;12.87;;;23.10;99.90;;;;;;5115459;28;20470;-58
2023/06/21 07:50:16;;;;;;;14.93;13.60;;;23.00;99.90;;;;;;5116875;28;20489;-58
2023/06/21 07:52:43;;;;;;;14.60;13.20;;;23.00;99.90;;;;;;5115685;28;20535;-56
2023/06/21 07:55:11;;;;;;;14.23;13.03;;;23.40;99.90;;;;;;5116146;28;20541;-58
2023/06/21 07:57:39;;;;;;;13.97;12.77;;;23.80;99.90;;;;;;5117268;28;20461;-59
2023/06/21 08:00:11;;;;;;;13.20;11.97;;;24.10;99.90;;;;;;5116951;28;20462;-59
2023/06/21 08:02:39;;;;;;;13.50;12.40;;;24.40;99.90;;;;;;5117125;28;20495;-57
2023/06/21 08:05:08;;;;;;;15.20;13.90;;;24.20;99.90;;;;;;5117041;28;20466;-58
2023/06/21 08:07:35;;;;;;;15.27;13.83;;;24.20;99.90;;;;;;5117715;28;20466;-59
2023/06/21 08:10:02;;;;;;;15.20;13.90;;;23.80;99.90;;;;;;5117986;28;20558;-57
2023/06/21 08:12:30;;;;;;;14.10;13.00;;;23.60;99.90;;;;;;5116057;28;20464;-57
2023/06/21 08:14:57;;;;;;;14.40;13.27;;;23.50;99.90;;;;;;5116466;28;20509;-58
2023/06/21 08:17:24;;;;;;;14.77;13.57;;;23.60;99.90;;;;;;5117436;28;20470;-58
2023/06/21 08:19:51;;;;;;;14.57;13.40;;;24.00;99.90;;;;;;5116131;27;20995;-57
2023/06/21 08:22:20;;;;;;;16.90;15.40;;;24.10;99.90;;;;;;5125248;27;20582;-59
2023/06/21 08:24:48;;;;;;;14.47;13.37;;;24.00;99.90;;;;;;5123292;27;20467;-58
2023/06/21 08:27:15;;;;;;;14.83;13.43;;;24.20;99.90;;;;;;5119182;27;20566;-58
2023/06/21 08:29:42;;;;;;;14.30;13.10;;;24.80;99.90;;;;;;5116255;28;20914;-59
2023/06/21 08:32:10;;;;;;;13.43;12.23;;;25.20;99.90;;;;;;5116267;28;20850;-59
2023/06/21 08:34:37;;;;;;;12.60;11.50;;;25.80;99.90;;;;;;5116630;28;20467;-59
2023/06/21 08:37:04;;;;;;;12.00;11.00;;;26.60;99.90;;;;;;5117306;28;20460;-59
2023/06/21 08:39:33;;;;;;;12.90;11.97;;;27.10;99.90;;;;;;5117113;28;20483;-59
2023/06/21 08:42:01;;;;;;;12.43;11.53;;;27.60;99.90;;;;;;5116449;28;20491;-59
2023/06/21 08:44:28;;;;;;;13.13;12.03;;;27.90;99.90;;;;;;5116512;28;20537;-58
2023/06/21 08:46:57;;;;;;;12.53;11.23;;;27.00;99.90;;;;;;5116925;28;20467;-57
2023/06/21 08:49:27;;;;;;;13.77;12.57;;;26.20;99.90;;;;;;5117827;28;20542;-58
2023/06/21 08:51:55;;;;;;;13.80;12.50;;;25.90;99.90;;;;;;5117487;28;20543;-58
2023/06/21 08:54:27;;;;;;;12.57;11.47;;;26.10;99.90;;;;;;5115964;28;20923;-58
2023/06/21 08:57:02;;;;;;;11.33;10.43;;;27.00;99.90;;;;;;5115623;28;20537;-58
2023/06/21 08:59:35;;;;;;;9.60;8.90;;;27.80;99.90;;;;;;5117918;28;20866;-59
2023/06/21 09:02:13;;;;;;;10.80;10.00;;;28.20;99.90;;;;;;5117384;28;20495;-59
2023/06/21 09:04:46;;;;;;;10.03;9.17;;;27.90;99.90;;;;;;5118023;28;20453;-58
2023/06/21 09:07:13;;;;;;;9.67;8.87;;;27.90;99.90;;;;;;5117822;28;20482;-58
2023/06/21 09:09:42;;;;;;;9.00;8.20;;;28.70;99.90;;;;;;5117815;28;20534;-58
2023/06/21 09:12:14;;;;;;;9.37;8.50;;;29.40;99.90;;;;;;5117273;28;20542;-58
2023/06/21 09:14:41;;;;;;;8.20;7.57;;;29.00;99.90;;;;;;5117320;28;20538;-58
2023/06/21 09:17:11;;;;;;;9.57;8.87;;;28.00;99.90;;;;;;5117525;28;20538;-55
2023/06/21 09:19:38;;;;;;;9.27;8.47;;;27.10;99.90;;;;;;5117083;28;20451;-55
2023/06/21 09:22:06;;;;;;;9.37;8.50;;;26.90;99.90;;;;;;5116276;28;20490;-56
2023/06/21 09:24:34;;;;;;;9.90;9.00;;;26.50;99.90;;;;;;5115792;28;20924;-57
2023/06/21 09:27:01;;;;;;;10.67;9.83;;;26.90;99.90;;;;;;5116764;28;20508;-55
2023/06/21 09:29:29;;;;;;;9.63;8.73;;;27.00;99.90;;;;;;5116504;28;20495;-56
2023/06/21 09:31:57;;;;;;;10.07;9.27;;;26.70;99.90;;;;;;5116798;28;20762;-57
2023/06/21 09:34:25;;;;;;;10.03;9.13;;;26.40;99.90;;;;;;5117386;28;20762;-56
2023/06/21 09:36:54;;;;;;;9.07;8.27;;;26.10;99.90;;;;;;5117555;28;20459;-53
2023/06/21 09:39:24;;;;;;;9.20;8.50;;;25.90;99.90;;;;;;5117467;28;20462;-53
2023/06/21 09:41:52;;;;;;;10.03;8.63;;;26.40;99.90;;;;;;5117469;28;20936;-52
2023/06/21 09:44:21;;;;;;;11.87;9.37;;;26.80;99.90;;;;;;5116554;28;20494;-58
2023/06/21 09:46:57;;;;;;;10.40;8.87;;;27.60;99.90;;;;;;5117387;28;20899;-59
2023/06/21 09:49:28;;;;;;;8.80;7.97;;;28.80;99.90;;;;;;5117716;28;20511;-58
2023/06/21 09:51:56;;;;;;;8.23;7.57;;;28.60;99.90;;;;;;5117038;28;20474;-58
2023/06/21 09:54:24;;;;;;;8.07;7.43;;;28.60;99.90;;;;;;5120553;28;20467;-59
2023/06/21 09:56:51;;;;;;;7.13;6.43;;;28.60;99.90;;;;;;5118856;28;20467;-58
2023/06/21 09:59:22;;;;;;;9.50;8.70;;;28.50;99.90;;;;;;5120683;28;20468;-56
2023/06/21 10:01:52;;;;;;;8.33;7.73;;;28.70;99.90;;;;;;5121101;28;20540;-58
2023/06/21 10:04:19;;;;;;;9.43;8.53;;;28.20;99.90;;;;;;5120362;27;20471;-58
2023/06/21 10:06:50;;;;;;;8.30;7.60;;;27.80;99.90;;;;;;5120718;28;20807;-58
2023/06/21 10:09:18;;;;;;;7.47;6.77;;;27.80;99.90;;;;;;5121412;28;20459;-52
2023/06/21 10:11:45;;;;;;;7.40;6.80;;;27.80;99.90;;;;;;5120405;28;20876;-49
2023/06/21 10:14:20;;;;;;;7.13;6.63;;;27.90;99.90;;;;;;5120021;28;20467;-57
2023/06/21 10:16:54;;;;;;;7.37;6.87;;;27.80;99.90;;;;;;5118762;28;20474;-56
2023/06/21 10:19:22;;;;;;;7.87;7.17;;;28.10;99.90;;;;;;5121279;28;20459;-58
2023/06/21 10:21:52;;;;;;;8.43;7.73;;;27.90;99.90;;;;;;5121154;28;20455;-56
2023/06/21 10:24:22;;;;;;;8.40;7.60;;;27.90;99.90;;;;;;5120384;28;20470;-56
2023/06/21 10:26:50;;;;;;;8.90;8.20;;;28.20;99.90;;;;;;5118851;28;20477;-53
2023/06/21 10:29:19;;;;;;;8.90;8.20;;;27.40;99.90;;;;;;5117913;28;20765;-57
2023/06/21 10:31:49;;;;;;;8.97;8.07;;;26.80;99.90;;;;;;5118188;28;20455;-52
2023/06/21 10:34:22;;;;;;;9.00;8.20;;;26.60;99.90;;;;;;5118798;28;20459;-57
2023/06/21 10:36:58;;;;;;;8.50;7.90;;;26.70;99.90;;;;;;5118704;28;20495;-56
2023/06/21 10:39:28;;;;;;;8.50;7.70;;;27.20;99.90;;;;;;5119510;28;20939;-57
2023/06/21 10:41:55;;;;;;;7.97;7.37;;;27.40;99.90;;;;;;5119704;28;20554;-58
2023/06/21 10:44:23;;;;;;;8.53;7.83;;;28.50;99.90;;;;;;5120699;28;20460;-53
2023/06/21 10:46:51;;;;;;;9.67;8.67;;;28.60;99.90;;;;;;5120336;28;20546;-55
2023/06/21 10:49:21;;;;;;;9.43;8.60;;;28.30;99.90;;;;;;5120536;28;20920;-53
2023/06/21 10:51:49;;;;;;;9.73;8.77;;;27.10;99.90;;;;;;5119319;28;20769;-47
2023/06/21 10:54:18;;;;;;;9.00;8.20;;;26.80;99.90;;;;;;5118353;28;20451;-59
2023/06/21 10:56:46;;;;;;;9.40;8.70;;;26.40;99.90;;;;;;5117990;28;20469;-60
2023/06/21 10:59:13;;;;;;;8.63;7.93;;;26.90;99.90;;;;;;5118445;28;20542;-59
2023/06/21 11:01:41;;;;;;;9.50;8.63;;;27.80;99.90;;;;;;5118154;28;20546;-58
2023/06/21 11:04:08;;;;;;;8.83;8.23;;;28.30;99.90;;;;;;5117118;28;20494;-57
2023/06/21 11:06:38;;;;;;;7.77;7.10;;;28.60;99.90;;;;;;5118652;28;20546;-58
2023/06/21 11:09:10;;;;;;;9.57;8.73;;;28.90;99.90;;;;;;5118304;28;20830;-59
2023/06/21 11:11:40;;;;;;;8.43;7.73;;;29.30;99.90;;;;;;5118391;28;20460;-59
2023/06/21 11:14:08;;;;;;;7.53;6.83;;;28.80;99.90;;;;;;5118420;28;20489;-58
2023/06/21 11:16:36;;;;;;;8.30;7.70;;;28.90;99.90;;;;;;5117872;28;20512;-56
2023/06/21 11:19:07;;;;;;;8.53;7.93;;;28.70;99.90;;;;;;5118081;28;20923;-59
2023/06/21 11:21:40;;;;;;;8.73;8.07;;;28.80;99.90;;;;;;5118331;28;20902;-58
2023/06/21 11:24:09;;;;;;;8.20;7.40;;;29.30;99.90;;;;;;5118436;28;20834;-57
2023/06/21 11:26:57;;;;;;;8.93;8.13;;;29.20;99.90;;;;;;5121213;27;20806;-57
2023/06/21 11:29:27;;;;;;;8.63;8.00;;;29.20;99.90;;;;;;5111281;28;20770;-59
2023/06/21 11:32:10;;;;;;;7.87;7.27;;;29.80;99.90;;;;;;5125861;27;20885;-59
2023/06/21 11:34:37;;;;;;;9.47;8.67;;;30.30;99.90;;;;;;5119437;27;20462;-59
2023/06/21 11:37:33;;;;;;;7.70;7.10;;;30.60;99.90;;;;;;5118309;27;20474;-59
2023/06/21 11:40:01;;;;;;;8.17;7.47;;;30.20;99.90;;;;;;5119055;27;20476;-60
2023/06/21 11:42:34;;;;;;;7.50;7.00;;;31.00;99.90;;;;;;5114290;28;20559;-59
2023/06/21 11:45:17;;;;;;;8.00;7.30;;;31.40;99.90;;;;;;5116569;28;20463;-60
2023/06/21 11:47:59;;;;;;;7.07;6.57;;;32.00;99.90;;;;;;5116772;28;20508;-60
2023/06/21 11:50:33;;;;;;;9.60;8.90;;;31.90;99.90;;;;;;5124998;27;20478;-60
2023/06/21 11:53:23;;;;;;;9.77;8.97;;;31.80;99.90;;;;;;5119293;27;20474;-59
2023/06/21 11:55:52;;;;;;;10.57;9.67;;;31.70;99.90;;;;;;5115109;28;20459;-58
2023/06/21 11:58:20;;;;;;;10.30;9.40;;;30.70;99.90;;;;;;5116667;28;20493;-63
2023/06/21 12:00:47;;;;;;;6.80;6.33;;;30.60;99.90;;;;;;5115973;28;20467;-62
2023/06/21 12:03:16;;;;;;;6.03;5.60;;;31.40;99.90;;;;;;5115896;28;20537;-58
2023/06/21 12:05:45;;;;;;;6.20;5.70;;;31.80;99.90;;;;;;5115570;28;20459;-58
2023/06/21 12:08:12;;;;;;;6.97;6.37;;;31.00;99.90;;;;;;5116265;28;20451;-58
2023/06/21 12:10:41;;;;;;;6.67;6.03;;;31.50;99.90;;;;;;5116552;28;20519;-59
2023/06/21 12:13:09;;;;;;;7.03;6.43;;;31.80;99.90;;;;;;5115317;28;20462;-61
2023/06/21 12:15:36;;;;;;;7.17;6.67;;;32.40;99.90;;;;;;5113510;28;20813;-59
2023/06/21 12:18:06;;;;;;;8.27;7.67;;;32.10;99.90;;;;;;5115789;28;20455;-59
2023/06/21 12:20:34;;;;;;;8.33;6.63;;;31.20;99.90;;;;;;5115513;28;20927;-58
2023/06/21 12:23:01;;;;;;;7.23;6.73;;;30.40;99.90;;;;;;5116010;28;20495;-53
2023/06/21 12:25:28;;;;;;;7.27;6.57;;;29.60;99.90;;;;;;5116840;28;20462;-56
2023/06/21 12:27:58;;;;;;;7.70;7.10;;;29.70;99.90;;;;;;5117420;28;20491;-59
2023/06/21 12:30:28;;;;;;;7.13;6.43;;;29.70;99.90;;;;;;5117885;28;20826;-56
2023/06/21 12:32:56;;;;;;;6.97;6.47;;;29.60;99.90;;;;;;5118030;28;20459;-52
2023/06/21 12:35:23;;;;;;;7.73;7.13;;;30.10;99.90;;;;;;5118461;28;20832;-58
2023/06/21 12:37:53;;;;;;;8.30;7.73;;;30.00;99.90;;;;;;5118693;28;20460;-58
2023/06/21 12:40:20;;;;;;;9.10;8.50;;;30.10;99.90;;;;;;5118612;28;20451;-57
2023/06/21 12:42:47;;;;;;;8.00;7.30;;;29.50;99.90;;;;;;5118179;28;20948;-57
2023/06/21 12:45:22;;;;;;;8.77;8.17;;;29.40;99.90;;;;;;5118370;28;20546;-54
2023/06/21 12:47:51;;;;;;;8.03;7.37;;;29.20;99.90;;;;;;5118407;28;20459;-53
2023/06/21 12:50:20;;;;;;;9.53;8.40;;;29.20;99.90;;;;;;5117668;28;20474;-54
2023/06/21 12:52:59;;;;;;;8.73;8.13;;;29.00;99.90;;;;;;5118088;28;20477;-57
2023/06/21 12:55:26;;;;;;;8.03;7.23;;;28.50;99.90;;;;;;5117749;28;20466;-58